METAR Data
IDs: Format: Raw Decoded Include TAF

Data at: 0201 UTC 24 May 2019

METAR for:KSPB (Scappoose Ind Airpar, OR, US)
Text:KSPB 240153Z AUTO VRB06G17KT 10SM CLR 24/10 A2986 RMK AO2 SLP112 T02440100
Temperature: 24.4°C ( 76°F)
Dewpoint: 10.0°C ( 50°F) [RH = 40%]
Pressure (altimeter):29.86 inches Hg (1011.3 mb) [Sea level pressure: 1011.2 mb]
Winds:variable direction winds at 7 MPH (6 knots; 3.1 m/s) gusting to 20 MPH (17 knots; 8.7 m/s)
Visibility:10 or more sm (16+ km)
Ceiling:at least 12,000 feet AGL
Clouds:sky clear below 12,000 feet AGL
QC Flag:automated observation with no human augmentation